Dame Des Tropiques — FQJE — position and weather

sailwx.info

Track history (hours):
 
Tides and Currents Weather Stations Pressure Air Temp Water Temp Dewpoint Dewpoint Depression Visibility Wind Speed Wind Dir Waves Ship Positions

Dame Des Tropiques

Last reported at 2015-Oct-05 03:07 UTC. Time now 2016-Feb-06 20:41 UTC.
Position N 48°51' W 002°07'.
Warning: this ship's position is months out of date.

Length 28 m.

Type: Sailing vessel. MMSI: 347002100.

Date/timePositionNaut miles runAvg speedWind from/ knotsBaromVisibWave heightAir tempDewpointWater temp
2015-Oct-05 03:07N 48°51' W 002°07'111 4.5
2015-Oct-04 02:33N 48°33' W 004°53'6 6.1
2015-Oct-04 01:33N 48°29' W 004°59'4 4.0
2015-Oct-04 00:33N 48°25' W 005°03'  
2015-Sep-25 19:33N 39°11' W 009°38'6 6.0
2015-Sep-25 18:33N 39°05' W 009°38'6 6.0
2015-Sep-25 17:33N 38°59' W 009°37'6 6.2
2015-Sep-25 16:33N 38°53' W 009°36'6 5.9
2015-Sep-25 15:33N 38°47' W 009°35'6 5.9
2015-Sep-25 14:33N 38°42' W 009°33'6 5.7
2015-Sep-25 13:32N 38°36' W 009°32'6 5.9
2015-Sep-25 12:33N 38°30' W 009°31'6 6.1
2015-Sep-25 11:33N 38°24' W 009°29'7 6.7
2015-Sep-25 10:31N 38°17' W 009°28'6 6.5
2015-Sep-25 09:32N 38°11' W 009°26'6 6.0
2015-Sep-25 08:30N 38°05' W 009°23'5 5.5
2015-Sep-25 07:33N 38°00' W 009°22'5 5.2
2015-Sep-25 06:32N 37°55' W 009°20'4 4.6
2015-Sep-25 05:33N 37°51' W 009°19'5 4.6
2015-Sep-25 04:33N 37°46' W 009°17'6 4.9
2015-Sep-25 03:16N 37°40' W 009°16'  
Track history (hours):
 
Tides and Currents Weather Stations Pressure Air Temp Water Temp Dewpoint Dewpoint Depression Visibility Wind Speed Wind Dir Waves Ship Positions

Dame Des Tropiques

Last reported at 2015-Oct-05 03:07 UTC. Time now 2016-Feb-06 20:41 UTC.
Position N 48°51' W 002°07'.
Warning: this ship's position is months out of date.

Length 28 m.

Type: Sailing vessel. MMSI: 347002100.

Date/timePositionNaut miles runAvg speedWind from/ knotsBaromVisibWave heightAir tempDewpointWater temp
2015-Oct-05 03:07N 48°51' W 002°07'111 4.5
2015-Oct-04 02:33N 48°33' W 004°53'6 6.1
2015-Oct-04 01:33N 48°29' W 004°59'4 4.0
2015-Oct-04 00:33N 48°25' W 005°03'  
2015-Sep-25 19:33N 39°11' W 009°38'6 6.0
2015-Sep-25 18:33N 39°05' W 009°38'6 6.0
2015-Sep-25 17:33N 38°59' W 009°37'6 6.2
2015-Sep-25 16:33N 38°53' W 009°36'6 5.9
2015-Sep-25 15:33N 38°47' W 009°35'6 5.9
2015-Sep-25 14:33N 38°42' W 009°33'6 5.7
2015-Sep-25 13:32N 38°36' W 009°32'6 5.9
2015-Sep-25 12:33N 38°30' W 009°31'6 6.1
2015-Sep-25 11:33N 38°24' W 009°29'7 6.7
2015-Sep-25 10:31N 38°17' W 009°28'6 6.5
2015-Sep-25 09:32N 38°11' W 009°26'6 6.0
2015-Sep-25 08:30N 38°05' W 009°23'5 5.5
2015-Sep-25 07:33N 38°00' W 009°22'5 5.2
2015-Sep-25 06:32N 37°55' W 009°20'4 4.6
2015-Sep-25 05:33N 37°51' W 009°19'5 4.6
2015-Sep-25 04:33N 37°46' W 009°17'6 4.9
2015-Sep-25 03:16N 37°40' W 009°16'  

Dump ship's entire track history